Mayflower, Louisiana
Current Conditions -  °F | °C
As of 6:55 PM on Tuesday 21 Oct 2014 (Local Time) from KHEZ Reporting Station
Clear Clear  
Wind Chill: 66°   Ceiling: Unl
Heat Index: 66°   Visibility: 10mi
Dew Point: 61°   Wind: 0mph
Humidity: 83%   Direction: NA
Pressure: 30.02"   Gusts: NA
Location:  31.9504°N, 91.3766°W
Report Text: KHEZ 212355Z AUTO 00000KT 10SM CLR 19/16 A3002 RMK AO1 10250 20190 402500100 54000
Loading
Personal Weather Stations






























Interactive Weather Map
Tropical Storm Tracking
New forecast layout! Learn more

10-Day Weather Forecast

Advertisements
Track Severe Weather on mobile